createdAt,value
2023-02-15T00:01:06.830Z,26.65
2023-02-15T00:03:35.899Z,24.80
2023-02-15T00:06:03.642Z,23.17
2023-02-15T00:08:31.456Z,24.95
2023-02-15T00:11:05.692Z,24.07
2023-02-15T00:13:36.755Z,28.13
2023-02-15T00:16:04.588Z,23.05
2023-02-15T00:18:32.584Z,25.30
2023-02-15T00:21:05.052Z,23.33
2023-02-15T00:23:32.591Z,32.20
2023-02-15T00:26:07.175Z,32.25
2023-02-15T00:28:34.799Z,36.38
2023-02-15T00:31:06.641Z,39.13
2023-02-15T00:33:34.619Z,37.90
2023-02-15T00:36:04.397Z,36.63
2023-02-15T00:38:32.340Z,37.97
2023-02-15T00:41:00.748Z,35.53
2023-02-15T00:43:28.878Z,36.30
2023-02-15T00:45:56.503Z,37.15
2023-02-15T00:48:25.575Z,31.50
2023-02-15T00:50:57.063Z,41.25
2023-02-15T00:53:26.254Z,39.58
2023-02-15T00:55:54.007Z,36.38
2023-02-15T00:58:21.937Z,30.60
2023-02-15T01:00:49.824Z,31.83
2023-02-15T01:03:18.632Z,32.47
2023-02-15T01:05:46.620Z,34.45
2023-02-15T01:08:14.311Z,28.00
2023-02-15T01:10:45.191Z,28.08
2023-02-15T01:13:12.770Z,25.93
2023-02-15T01:15:42.451Z,26.55
2023-02-15T01:18:11.820Z,35.35
2023-02-15T01:20:45.086Z,29.50
2023-02-15T01:23:12.834Z,29.13
2023-02-15T01:25:41.040Z,29.27
2023-02-15T01:28:11.669Z,29.90
2023-02-15T01:30:40.406Z,28.63
2023-02-15T01:33:08.015Z,31.48
2023-02-15T01:35:35.688Z,32.05
2023-02-15T01:38:05.012Z,33.37
2023-02-15T01:40:32.519Z,30.13
2023-02-15T01:43:00.133Z,32.10
2023-02-15T01:45:30.825Z,34.03
2023-02-15T01:48:00.628Z,31.58
2023-02-15T01:50:35.148Z,31.00
2023-02-15T01:53:05.678Z,30.52
2023-02-15T01:55:35.244Z,30.08
2023-02-15T01:58:03.114Z,29.75
2023-02-15T02:00:32.138Z,30.65
2023-02-15T02:02:59.969Z,35.63
2023-02-15T02:05:27.830Z,34.47
2023-02-15T02:07:58.048Z,28.67
2023-02-15T02:10:26.278Z,31.88
2023-02-15T02:12:55.029Z,32.53
2023-02-15T02:15:25.148Z,31.93
2023-02-15T02:18:01.504Z,32.22
2023-02-15T02:20:32.176Z,36.17
2023-02-15T02:23:26.423Z,31.67
2023-02-15T02:26:11.993Z,33.00
2023-02-15T02:28:54.468Z,39.73
2023-02-15T02:31:35.471Z,33.70
2023-02-15T02:34:07.463Z,30.52
2023-02-15T02:36:39.301Z,29.77
2023-02-15T02:39:11.765Z,28.65
2023-02-15T02:41:44.056Z,30.00
2023-02-15T02:44:14.807Z,28.65
2023-02-15T02:46:48.104Z,30.02
2023-02-15T02:49:19.426Z,30.25
2023-02-15T02:51:47.159Z,28.75
2023-02-15T02:54:14.735Z,35.90
2023-02-15T02:56:44.764Z,30.25
2023-02-15T02:59:14.055Z,30.58
2023-02-15T03:01:43.430Z,31.38
2023-02-15T03:04:12.331Z,29.50
2023-02-15T03:06:43.811Z,36.20
2023-02-15T03:09:15.807Z,33.67
2023-02-15T03:11:44.990Z,38.65
2023-02-15T03:14:14.711Z,40.88
2023-02-15T03:16:45.833Z,38.17
2023-02-15T03:19:15.759Z,33.83
2023-02-15T03:21:50.468Z,36.80
2023-02-15T03:24:19.658Z,33.22
2023-02-15T03:26:48.723Z,34.03
2023-02-15T03:29:18.185Z,31.83
2023-02-15T03:31:48.870Z,32.90
2023-02-15T03:34:16.995Z,33.30
2023-02-15T03:36:49.220Z,34.97
2023-02-15T03:39:20.555Z,37.58
2023-02-15T03:41:51.031Z,33.80
2023-02-15T03:44:23.942Z,35.60
2023-02-15T03:46:55.248Z,38.63
2023-02-15T03:49:25.073Z,35.58
2023-02-15T03:51:56.646Z,35.75
2023-02-15T03:54:47.100Z,36.33
2023-02-15T03:57:34.475Z,35.27
2023-02-15T04:00:20.102Z,33.78
2023-02-15T04:02:53.859Z,40.47
2023-02-15T04:05:21.449Z,39.00
2023-02-15T04:07:55.312Z,36.88
2023-02-15T04:10:40.455Z,38.73
2023-02-15T04:13:08.274Z,37.42
2023-02-15T04:15:53.929Z,32.42
2023-02-15T04:18:21.693Z,36.33
2023-02-15T04:21:06.704Z,32.70
2023-02-15T04:23:54.272Z,32.23
2023-02-15T04:26:21.858Z,33.83
2023-02-15T04:28:49.442Z,30.35
2023-02-15T04:31:17.392Z,36.00
2023-02-15T04:33:45.039Z,34.45
2023-02-15T04:36:12.624Z,33.43
2023-02-15T04:38:41.544Z,33.58
2023-02-15T04:41:09.865Z,34.92
2023-02-15T04:43:37.453Z,31.40
2023-02-15T04:46:07.192Z,27.92
2023-02-15T04:48:34.866Z,34.00
2023-02-15T04:51:06.771Z,32.17
2023-02-15T04:53:34.392Z,30.55
2023-02-15T04:56:03.749Z,32.45
2023-02-15T04:58:31.421Z,31.95
2023-02-15T05:00:59.488Z,36.80
2023-02-15T05:03:27.236Z,33.15
2023-02-15T05:05:55.040Z,33.60
2023-02-15T05:08:23.145Z,32.58
2023-02-15T05:10:50.732Z,36.75
2023-02-15T05:13:19.776Z,37.57
2023-02-15T05:15:55.759Z,37.75
2023-02-15T05:18:25.878Z,34.70
2023-02-15T05:20:53.541Z,40.63
2023-02-15T05:23:21.348Z,35.83
2023-02-15T05:26:10.447Z,42.07
2023-02-15T05:28:39.787Z,43.15
2023-02-15T05:31:08.267Z,38.92
2023-02-15T05:33:36.306Z,36.08
2023-02-15T05:36:04.578Z,39.85
2023-02-15T05:38:32.351Z,37.53
2023-02-15T05:41:00.309Z,36.03
2023-02-15T05:43:28.359Z,39.30
2023-02-15T05:45:57.452Z,44.40
2023-02-15T05:48:28.096Z,43.17
2023-02-15T05:51:00.775Z,40.27
2023-02-15T05:53:28.484Z,41.20
2023-02-15T05:56:00.300Z,34.47
2023-02-15T05:58:29.322Z,37.80
2023-02-15T06:00:58.419Z,34.40
2023-02-15T06:03:29.374Z,44.43
2023-02-15T06:05:57.108Z,43.03
2023-02-15T06:08:24.631Z,44.35
2023-02-15T06:10:52.862Z,43.17
2023-02-15T06:13:20.561Z,48.75
2023-02-15T06:15:48.295Z,44.33
2023-02-15T06:18:17.307Z,52.40
2023-02-15T06:20:48.108Z,45.80
2023-02-15T06:23:15.638Z,45.58
2023-02-15T06:25:43.198Z,39.45
2023-02-15T06:28:10.755Z,40.80
2023-02-15T06:30:38.996Z,42.47
2023-02-15T06:33:06.688Z,47.47
2023-02-15T06:35:35.711Z,56.78
2023-02-15T06:38:03.471Z,63.65
2023-02-15T06:40:32.548Z,62.90
2023-02-15T06:43:00.284Z,64.72
2023-02-15T06:45:28.036Z,71.30
2023-02-15T06:47:56.135Z,67.90
2023-02-15T06:50:23.866Z,73.38
2023-02-15T06:52:57.157Z,72.83
2023-02-15T06:55:24.850Z,78.43
2023-02-15T06:57:52.685Z,67.75
2023-02-15T07:00:21.151Z,66.15
2023-02-15T07:02:48.881Z,64.03
2023-02-15T07:05:16.655Z,77.13
2023-02-15T07:07:45.172Z,68.40
2023-02-15T07:10:14.565Z,73.05
2023-02-15T07:12:45.743Z,71.82
2023-02-15T07:15:14.333Z,72.32
2023-02-15T07:17:42.135Z,75.53
2023-02-15T07:20:12.304Z,76.07
2023-02-15T07:22:39.859Z,66.90
2023-02-15T07:25:08.272Z,68.20
2023-02-15T07:27:37.395Z,70.07
2023-02-15T07:30:06.883Z,70.40
2023-02-15T07:32:35.058Z,63.78
2023-02-15T07:35:03.037Z,71.00
2023-02-15T07:37:30.717Z,71.60
2023-02-15T07:39:58.799Z,76.57
2023-02-15T07:42:26.440Z,73.03
2023-02-15T07:44:55.616Z,66.93
2023-02-15T07:47:23.781Z,65.30
2023-02-15T07:49:51.386Z,68.38
2023-02-15T07:52:18.917Z,60.58
2023-02-15T07:54:48.712Z,60.77
2023-02-15T07:57:16.301Z,66.53
2023-02-15T07:59:43.889Z,56.28
2023-02-15T08:02:13.264Z,62.10
2023-02-15T08:04:41.142Z,52.00
2023-02-15T08:07:09.961Z,61.37
2023-02-15T08:09:37.682Z,58.85
2023-02-15T08:12:05.881Z,62.55
2023-02-15T08:14:33.901Z,62.58
2023-02-15T08:17:03.767Z,60.10
2023-02-15T08:19:33.738Z,58.83
2023-02-15T08:22:01.937Z,62.50
2023-02-15T08:24:30.210Z,56.38
2023-02-15T08:26:58.160Z,64.43
2023-02-15T08:29:26.847Z,55.17
2023-02-15T08:31:55.259Z,63.10
2023-02-15T08:34:23.015Z,55.92
2023-02-15T08:36:52.271Z,59.50
2023-02-15T08:39:20.053Z,56.28
2023-02-15T08:41:48.614Z,56.25
2023-02-15T08:44:16.662Z,52.47
2023-02-15T08:46:45.292Z,56.92
2023-02-15T08:49:14.554Z,55.00
2023-02-15T08:51:43.406Z,58.33
2023-02-15T08:54:15.938Z,56.47
2023-02-15T08:56:44.062Z,56.07
2023-02-15T08:59:14.883Z,66.97
2023-02-15T09:01:44.472Z,54.08
2023-02-15T09:04:14.014Z,58.20
2023-02-15T09:06:42.424Z,55.30
2023-02-15T09:09:11.862Z,52.50
2023-02-15T09:11:42.645Z,51.70
2023-02-15T09:14:11.558Z,51.53
2023-02-15T09:16:39.955Z,52.13
2023-02-15T09:19:08.076Z,50.30
2023-02-15T09:21:37.641Z,40.43
2023-02-15T09:24:06.657Z,52.72
2023-02-15T09:26:36.407Z,45.22
2023-02-15T09:29:05.615Z,43.08
2023-02-15T09:31:34.662Z,49.78
2023-02-15T09:34:03.543Z,41.33
2023-02-15T09:36:33.189Z,47.97
2023-02-15T09:39:04.209Z,42.55
2023-02-15T09:41:43.837Z,44.10
2023-02-15T09:44:19.207Z,45.92
2023-02-15T09:46:53.796Z,42.53
2023-02-15T09:49:29.306Z,38.65
2023-02-15T09:52:19.962Z,42.72
2023-02-15T09:54:55.699Z,41.35
2023-02-15T09:57:28.304Z,43.55
2023-02-15T10:00:00.944Z,46.37
2023-02-15T10:02:36.896Z,31.45
2023-02-15T10:05:13.435Z,39.75
2023-02-15T10:07:47.709Z,27.58
2023-02-15T10:10:19.110Z,31.60
2023-02-15T10:13:02.708Z,30.00
2023-02-15T10:15:53.189Z,36.63
2023-02-15T10:18:29.849Z,31.83
2023-02-15T10:21:00.867Z,32.95
2023-02-15T10:23:37.042Z,31.48
2023-02-15T10:26:12.427Z,35.90
2023-02-15T10:28:43.593Z,34.53
2023-02-15T10:31:17.190Z,38.50
2023-02-15T10:33:46.774Z,23.95
2023-02-15T10:36:20.432Z,26.02
2023-02-15T10:38:55.895Z,35.23
2023-02-15T10:41:31.443Z,42.15
2023-02-15T10:44:07.144Z,35.67
2023-02-15T10:46:44.675Z,33.47
2023-02-15T10:49:18.492Z,33.05
2023-02-15T10:51:52.397Z,32.43
2023-02-15T10:54:25.262Z,25.33
2023-02-15T10:57:01.172Z,25.95
2023-02-15T10:59:46.611Z,28.10
2023-02-15T11:02:21.099Z,31.05
2023-02-15T11:04:54.993Z,31.30
2023-02-15T11:07:25.987Z,28.70
2023-02-15T11:09:55.752Z,29.77
2023-02-15T11:12:24.777Z,33.15
2023-02-15T11:14:55.355Z,30.60
2023-02-15T11:17:28.304Z,33.97
2023-02-15T11:20:03.838Z,32.75
2023-02-15T11:22:32.980Z,27.52
2023-02-15T11:25:02.604Z,26.77
2023-02-15T11:27:31.692Z,20.70
2023-02-15T11:30:01.564Z,26.47
2023-02-15T11:32:33.068Z,31.60
2023-02-15T11:35:03.331Z,27.25
2023-02-15T11:37:33.479Z,24.05
2023-02-15T11:40:02.826Z,26.20
2023-02-15T11:42:32.164Z,23.83
2023-02-15T11:45:02.075Z,30.98
2023-02-15T11:47:31.110Z,22.40
2023-02-15T11:49:59.427Z,17.55
2023-02-15T11:52:27.108Z,24.65
2023-02-15T11:54:55.447Z,21.10
2023-02-15T11:57:25.877Z,21.08
2023-02-15T11:59:56.819Z,22.15
2023-02-15T12:02:27.621Z,29.90
2023-02-15T12:04:59.086Z,21.15
2023-02-15T12:07:30.795Z,24.10
2023-02-15T12:10:02.796Z,27.23
2023-02-15T12:12:31.331Z,32.97
2023-02-15T12:14:59.979Z,25.00
2023-02-15T12:17:29.897Z,26.00
2023-02-15T12:20:00.017Z,29.80
2023-02-15T12:22:29.709Z,29.48
2023-02-15T12:24:58.641Z,29.55
2023-02-15T12:27:29.059Z,26.25
2023-02-15T12:29:58.883Z,24.13
2023-02-15T12:32:30.817Z,24.63
2023-02-15T12:35:02.515Z,20.23
2023-02-15T12:37:32.970Z,25.15
2023-02-15T12:40:01.571Z,17.13
2023-02-15T12:42:30.696Z,30.33
2023-02-15T12:45:00.200Z,20.10
2023-02-15T12:47:29.623Z,22.50
2023-02-15T12:50:18.086Z,20.85
2023-02-15T12:52:46.431Z,18.17
2023-02-15T12:55:21.185Z,17.98
2023-02-15T12:57:51.498Z,16.73
2023-02-15T13:00:29.788Z,12.85
2023-02-15T13:02:58.779Z,19.42
2023-02-15T13:05:30.804Z,15.43
2023-02-15T13:08:00.002Z,14.65
2023-02-15T13:10:29.385Z,10.60
2023-02-15T13:12:59.235Z,18.88
2023-02-15T13:15:33.081Z,15.05
2023-02-15T13:18:01.682Z,21.75
2023-02-15T13:20:30.820Z,11.23
2023-02-15T13:23:00.719Z,12.80
2023-02-15T13:25:31.110Z,12.85
2023-02-15T13:28:00.137Z,16.80
2023-02-15T13:30:30.537Z,18.65
2023-02-15T13:33:00.511Z,21.30
2023-02-15T13:35:29.499Z,20.60
2023-02-15T13:38:04.370Z,13.18
2023-02-15T13:40:35.418Z,16.98
2023-02-15T13:43:07.601Z,15.88
2023-02-15T13:45:40.144Z,20.48
2023-02-15T13:48:14.336Z,11.53
2023-02-15T13:50:53.993Z,12.43
2023-02-15T13:53:43.287Z,17.58
2023-02-15T13:56:16.382Z,10.05
2023-02-15T13:58:56.708Z,14.73
2023-02-15T14:01:27.067Z,13.27
2023-02-15T14:04:03.163Z,15.75
2023-02-15T14:06:39.325Z,14.63
2023-02-15T14:09:14.456Z,14.75
2023-02-15T14:11:46.637Z,15.93
2023-02-15T14:14:25.386Z,15.50
2023-02-15T14:17:06.755Z,17.83
2023-02-15T14:19:38.243Z,13.75
2023-02-15T14:22:12.754Z,13.55
2023-02-15T14:24:45.690Z,15.90
2023-02-15T14:27:18.841Z,12.70
2023-02-15T14:29:49.692Z,15.00
2023-02-15T14:32:21.634Z,23.45
2023-02-15T14:34:52.594Z,14.20
2023-02-15T14:37:24.854Z,15.77
2023-02-15T14:40:15.668Z,15.93
2023-02-15T14:42:47.220Z,12.32
2023-02-15T14:45:20.754Z,13.88
2023-02-15T14:47:51.096Z,14.15
2023-02-15T14:50:39.304Z,15.75
2023-02-15T14:53:25.372Z,15.53
2023-02-15T14:56:09.108Z,14.23
2023-02-15T14:58:38.046Z,11.00
2023-02-15T15:01:10.323Z,9.15
2023-02-15T15:03:38.518Z,15.50
2023-02-15T15:06:07.245Z,13.20
2023-02-15T15:08:36.745Z,12.60
2023-02-15T15:11:42.048Z,10.02
2023-02-15T15:14:34.501Z,13.07
2023-02-15T15:17:02.329Z,13.30
2023-02-15T15:19:52.830Z,9.17
2023-02-15T15:22:21.626Z,15.38
2023-02-15T15:24:55.807Z,11.32
2023-02-15T15:27:44.337Z,11.93
2023-02-15T15:30:30.889Z,18.02
2023-02-15T15:33:03.051Z,11.17
2023-02-15T15:35:35.965Z,22.38
2023-02-15T15:38:19.536Z,12.13
2023-02-15T15:41:05.050Z,8.23
2023-02-15T15:43:48.263Z,21.05
2023-02-15T15:46:32.366Z,15.40
2023-02-15T15:49:05.063Z,14.80
2023-02-15T15:51:34.471Z,16.33
2023-02-15T15:54:03.462Z,18.00
2023-02-15T15:56:33.353Z,12.65
2023-02-15T15:59:02.718Z,16.87
2023-02-15T16:01:31.968Z,13.88
2023-02-15T16:04:00.188Z,13.80
2023-02-15T16:06:33.224Z,14.20
2023-02-15T16:09:12.055Z,16.70
2023-02-15T16:11:40.667Z,12.23
2023-02-15T16:14:14.671Z,18.15
2023-02-15T16:16:45.322Z,16.95
2023-02-15T16:19:18.987Z,19.38
2023-02-15T16:21:49.991Z,13.90
2023-02-15T16:24:23.592Z,19.80
2023-02-15T16:26:59.379Z,12.40
2023-02-15T16:29:31.072Z,13.05
2023-02-15T16:32:00.992Z,18.52
2023-02-15T16:34:33.346Z,15.82
2023-02-15T16:37:20.022Z,15.33
2023-02-15T16:39:49.014Z,15.32
2023-02-15T16:42:17.144Z,15.88
2023-02-15T16:44:45.136Z,15.27
2023-02-15T16:47:16.961Z,5.78
2023-02-15T16:49:46.744Z,5.03
2023-02-15T16:52:16.905Z,7.43
2023-02-15T16:54:45.931Z,5.82
2023-02-15T16:57:18.752Z,5.28
2023-02-15T16:59:48.415Z,7.53
2023-02-15T17:02:37.255Z,5.40
2023-02-15T17:05:17.033Z,5.03
2023-02-15T17:07:50.576Z,6.63
2023-02-15T17:10:32.094Z,5.85
2023-02-15T17:13:02.999Z,5.38
2023-02-15T17:15:32.159Z,5.07
2023-02-15T17:18:01.015Z,6.07
2023-02-15T17:20:31.529Z,4.57
2023-02-15T17:23:00.760Z,5.38
2023-02-15T17:25:34.747Z,5.60
2023-02-15T17:28:02.586Z,4.77
2023-02-15T17:30:31.568Z,4.90
2023-02-15T17:33:00.653Z,3.63
2023-02-15T17:35:29.222Z,6.57
2023-02-15T17:38:07.486Z,5.20
2023-02-15T17:40:38.179Z,4.00
2023-02-15T17:43:05.836Z,5.93
2023-02-15T17:45:34.797Z,5.93
2023-02-15T17:48:04.293Z,6.20
2023-02-15T17:50:32.362Z,5.60
2023-02-15T17:53:01.554Z,5.80
2023-02-15T17:55:42.867Z,5.25
2023-02-15T17:58:13.303Z,6.22
2023-02-15T18:01:00.368Z,4.90
2023-02-15T18:03:49.228Z,5.75
2023-02-15T18:06:34.367Z,6.63
2023-02-15T18:09:19.325Z,8.30
2023-02-15T18:11:49.253Z,7.05
2023-02-15T18:14:19.743Z,5.43
2023-02-15T18:16:47.476Z,5.95
2023-02-15T18:19:17.142Z,6.23
2023-02-15T18:21:46.014Z,6.15
2023-02-15T18:24:18.177Z,5.85
2023-02-15T18:26:45.739Z,7.80
2023-02-15T18:29:23.008Z,7.88
2023-02-15T18:31:53.382Z,6.13
2023-02-15T18:34:23.321Z,7.45
2023-02-15T18:36:51.640Z,7.20
2023-02-15T18:39:25.934Z,6.25
2023-02-15T18:41:53.641Z,7.60
2023-02-15T18:44:22.794Z,9.07
2023-02-15T18:46:50.390Z,7.90
2023-02-15T18:49:18.000Z,8.60
2023-02-15T18:51:47.627Z,7.18
2023-02-15T18:54:19.902Z,8.35
2023-02-15T18:56:49.914Z,9.57
2023-02-15T18:59:17.936Z,9.77
2023-02-15T19:01:47.021Z,8.88
2023-02-15T19:04:14.755Z,10.23
2023-02-15T19:06:44.855Z,9.88
2023-02-15T19:09:14.246Z,9.70
2023-02-15T19:11:41.982Z,14.10
2023-02-15T19:14:21.617Z,11.65
2023-02-15T19:16:50.881Z,12.65
2023-02-15T19:19:18.489Z,13.10
2023-02-15T19:21:46.165Z,12.67
2023-02-15T19:24:16.366Z,11.85
2023-02-15T19:26:45.891Z,10.57
2023-02-15T19:29:18.433Z,11.27
2023-02-15T19:31:46.252Z,14.32
2023-02-15T19:34:16.521Z,13.00
2023-02-15T19:36:44.511Z,14.40
2023-02-15T19:39:22.265Z,13.00
2023-02-15T19:41:50.053Z,14.93
2023-02-15T19:44:18.427Z,12.80
2023-02-15T19:46:45.982Z,13.93
2023-02-15T19:49:16.149Z,12.77
2023-02-15T19:51:44.385Z,14.73
2023-02-15T19:54:19.859Z,15.02
2023-02-15T19:56:49.315Z,12.38
2023-02-15T19:59:22.979Z,13.00
2023-02-15T20:01:52.243Z,15.23
2023-02-15T20:04:21.387Z,13.65
2023-02-15T20:06:49.861Z,12.70
2023-02-15T20:09:23.461Z,12.60
2023-02-15T20:11:51.946Z,15.20
2023-02-15T20:14:19.539Z,13.77
2023-02-15T20:16:47.215Z,13.02
2023-02-15T20:19:14.919Z,14.60
2023-02-15T20:21:44.652Z,15.85
2023-02-15T20:24:14.838Z,13.50
2023-02-15T20:26:42.559Z,12.80
2023-02-15T20:29:16.730Z,14.52
2023-02-15T20:31:45.236Z,13.50
2023-02-15T20:34:12.936Z,15.27
2023-02-15T20:36:41.037Z,16.10
2023-02-15T20:39:15.252Z,14.23
2023-02-15T20:41:47.684Z,13.32
2023-02-15T20:44:21.027Z,13.68
2023-02-15T20:46:50.798Z,16.23
2023-02-15T20:49:18.658Z,14.37
2023-02-15T20:51:49.194Z,11.10
2023-02-15T20:54:18.799Z,13.13
2023-02-15T20:56:47.128Z,12.15
2023-02-15T20:59:20.943Z,11.25
2023-02-15T21:01:48.688Z,10.17
2023-02-15T21:04:19.300Z,11.00
2023-02-15T21:06:48.070Z,12.00
2023-02-15T21:09:16.413Z,11.10
2023-02-15T21:11:45.823Z,10.85
2023-02-15T21:14:18.017Z,14.30
2023-02-15T21:16:47.361Z,9.30
2023-02-15T21:19:16.019Z,10.20
2023-02-15T21:21:44.447Z,8.95
2023-02-15T21:24:14.257Z,10.45
2023-02-15T21:26:43.331Z,9.47
2023-02-15T21:29:14.562Z,8.93
2023-02-15T21:31:42.269Z,9.45
2023-02-15T21:34:10.018Z,8.07
2023-02-15T21:36:37.960Z,9.13
2023-02-15T21:39:05.758Z,15.20
2023-02-15T21:41:51.405Z,8.98
2023-02-15T21:44:38.477Z,11.50
2023-02-15T21:47:23.975Z,9.93
2023-02-15T21:49:51.602Z,11.43
2023-02-15T21:52:20.740Z,9.83
2023-02-15T21:54:49.115Z,9.57
2023-02-15T21:57:22.362Z,9.00
2023-02-15T21:59:51.654Z,10.55
2023-02-15T22:02:26.905Z,9.43
2023-02-15T22:04:55.867Z,8.07
2023-02-15T22:07:23.684Z,10.50
2023-02-15T22:09:51.253Z,7.05
2023-02-15T22:12:20.167Z,9.95
2023-02-15T22:14:49.600Z,9.10
2023-02-15T22:17:19.418Z,7.27
2023-02-15T22:19:48.503Z,8.90
2023-02-15T22:22:16.397Z,8.82
2023-02-15T22:24:44.368Z,7.13
2023-02-15T22:27:17.264Z,8.30
2023-02-15T22:29:45.044Z,9.30
2023-02-15T22:32:17.088Z,7.38
2023-02-15T22:34:46.313Z,5.53
2023-02-15T22:37:17.429Z,8.55
2023-02-15T22:39:45.049Z,6.90
2023-02-15T22:42:20.855Z,10.40
2023-02-15T22:44:51.288Z,9.55
2023-02-15T22:47:21.007Z,7.38
2023-02-15T22:49:50.379Z,7.55
2023-02-15T22:52:18.866Z,10.98
2023-02-15T22:54:46.703Z,6.73
2023-02-15T22:57:17.071Z,10.60
2023-02-15T22:59:44.628Z,9.45
2023-02-15T23:02:14.438Z,10.48
2023-02-15T23:04:42.138Z,7.53
2023-02-15T23:07:13.915Z,8.43
2023-02-15T23:09:41.715Z,11.10
2023-02-15T23:12:22.536Z,7.53
2023-02-15T23:14:50.420Z,6.97
2023-02-15T23:17:18.068Z,11.95
2023-02-15T23:19:45.843Z,8.53
2023-02-15T23:22:15.606Z,10.25
2023-02-15T23:24:43.727Z,7.35
2023-02-15T23:27:34.172Z,11.63
2023-02-15T23:30:02.916Z,10.88
2023-02-15T23:32:35.862Z,11.57
2023-02-15T23:35:03.531Z,9.43
2023-02-15T23:37:32.752Z,10.77
2023-02-15T23:40:17.642Z,9.35
2023-02-15T23:42:45.303Z,10.77
2023-02-15T23:45:22.842Z,9.13
2023-02-15T23:48:08.054Z,11.57
2023-02-15T23:50:35.956Z,9.63
2023-02-15T23:53:05.093Z,9.73
2023-02-15T23:55:36.112Z,9.88
2023-02-15T23:58:04.274Z,10.83
